Time;durP1;ratioP1;P1;durP2;ratioP2;P2;SDS_P1;SDS_P2;PMS_P1;PMS_P2;Temp;Humidity;BMP_temperature;BMP_pressure;BME280_temperature;BME280_humidity;BME280_pressure;Samples;Min_cycle;Max_cycle;Signal;HPM_P1;HPM_P2
2024/01/08 00:00:19;;;;;;;1.43;1.33;;;;;;;;;;5064019;28;20554;-32
2024/01/08 00:02:50;;;;;;;1.50;1.40;;;;;;;;;;5070812;28;20216;-32
2024/01/08 00:05:17;;;;;;;1.73;1.60;;;;;;;;;;5069601;28;20619;-36
2024/01/08 00:07:45;;;;;;;1.40;1.33;;;;;;;;;;5063385;28;20273;-30
2024/01/08 00:10:14;;;;;;;2.87;1.53;;;;;;;;;;5064297;28;20201;-32
2024/01/08 00:12:41;;;;;;;2.37;1.53;;;;;;;;;;5065362;28;20233;-37
2024/01/08 00:15:08;;;;;;;1.27;1.17;;;;;;;;;;5068130;28;20244;-38
2024/01/08 00:17:38;;;;;;;1.73;1.63;;;;;;;;;;5070417;28;20210;-33
2024/01/08 00:20:08;;;;;;;1.10;1.10;;;;;;;;;;5060684;28;20248;-34
2024/01/08 00:22:35;;;;;;;1.13;1.07;;;;;;;;;;5067209;28;20826;-31
2024/01/08 00:25:03;;;;;;;2.40;1.50;;;;;;;;;;5066943;28;20224;-32
2024/01/08 00:27:32;;;;;;;1.40;1.30;;;;;;;;;;5068941;28;20564;-33
2024/01/08 00:29:59;;;;;;;1.50;1.40;;;;;;;;;;5063707;28;20216;-32
2024/01/08 00:32:27;;;;;;;1.10;1.10;;;;;;;;;;5069344;28;20571;-31
2024/01/08 00:34:54;;;;;;;1.80;1.70;;;;;;;;;;5072219;28;20300;-32
2024/01/08 00:37:22;;;;;;;1.10;1.10;;;;;;;;;;5062176;28;20205;-33
2024/01/08 00:39:49;;;;;;;2.27;1.97;;;;;;;;;;5061117;28;20206;-37
2024/01/08 00:42:17;;;;;;;1.43;1.33;;;;;;;;;;5064387;28;20209;-29
2024/01/08 00:44:45;;;;;;;1.90;1.80;;;;;;;;;;5065011;28;20232;-33
2024/01/08 00:47:13;;;;;;;1.70;1.60;;;;;;;;;;5069275;28;20221;-33
2024/01/08 00:49:40;;;;;;;1.53;1.43;;;;;;;;;;5068167;28;20639;-33
2024/01/08 00:52:08;;;;;;;2.50;1.90;;;;;;;;;;5057263;28;20202;-32
2024/01/08 00:54:35;;;;;;;1.63;1.50;;;;;;;;;;5070088;28;20757;-34
2024/01/08 00:57:03;;;;;;;1.80;1.60;;;;;;;;;;5070003;28;20202;-32
2024/01/08 00:59:30;;;;;;;1.60;1.33;;;;;;;;;;5065831;28;20669;-35
2024/01/08 01:02:00;;;;;;;1.50;1.30;;;;;;;;;;5063595;28;20212;-31
2024/01/08 01:04:27;;;;;;;1.57;1.47;;;;;;;;;;5068870;28;20713;-34
2024/01/08 01:06:54;;;;;;;2.70;1.80;;;;;;;;;;5066653;28;20221;-32
2024/01/08 01:09:21;;;;;;;1.53;1.17;;;;;;;;;;5062632;28;20197;-33
2024/01/08 01:11:49;;;;;;;1.73;1.40;;;;;;;;;;5063210;28;20229;-35
2024/01/08 01:14:16;;;;;;;1.60;1.50;;;;;;;;;;5069326;28;20221;-31
2024/01/08 01:16:44;;;;;;;2.30;1.50;;;;;;;;;;5070739;28;20212;-29
2024/01/08 01:19:14;;;;;;;1.83;1.70;;;;;;;;;;5070345;28;20567;-31
2024/01/08 01:21:44;;;;;;;1.63;1.20;;;;;;;;;;5061605;28;20229;-30
2024/01/08 01:24:15;;;;;;;0.90;0.90;;;;;;;;;;5068279;28;20232;-35
2024/01/08 01:26:44;;;;;;;1.10;1.10;;;;;;;;;;5154747;22;20251;-28
2024/01/08 01:29:13;;;;;;;1.43;1.20;;;;;;;;;;5051643;28;20245;-28
2024/01/08 01:31:41;;;;;;;0.77;0.77;;;;;;;;;;5045523;28;20210;-27
2024/01/08 01:34:10;;;;;;;1.90;1.70;;;;;;;;;;5059351;28;20209;-27
2024/01/08 01:36:40;;;;;;;2.27;1.80;;;;;;;;;;5044789;28;20210;-29
2024/01/08 01:39:07;;;;;;;0.70;0.70;;;;;;;;;;5049501;28;20613;-26
2024/01/08 01:41:35;;;;;;;1.37;1.20;;;;;;;;;;5046709;28;20232;-25
2024/01/08 01:46:38;;;;;;;2.00;1.57;;;;;;;;;;5049502;28;20230;-28
2024/01/08 01:49:27;;;;;;;0.73;0.73;;;;;;;;;;5049959;28;20209;-26
2024/01/08 01:52:02;;;;;;;1.30;1.20;;;;;;;;;;5048439;28;20206;-27
2024/01/08 01:54:30;;;;;;;1.93;1.80;;;;;;;;;;5043282;28;20237;-28
2024/01/08 01:57:03;;;;;;;1.50;1.40;;;;;;;;;;5047722;28;20206;-28
2024/01/08 01:59:32;;;;;;;2.13;1.63;;;;;;;;;;5040933;28;20210;-27
2024/01/08 02:02:04;;;;;;;0.63;0.63;;;;;;;;;;5048766;28;20217;-27
2024/01/08 02:04:32;;;;;;;2.53;1.33;;;;;;;;;;5044167;28;20226;-27
2024/01/08 02:09:30;;;;;;;0.90;0.90;;;;;;;;;;5084842;28;20217;-29
2024/01/08 02:11:58;;;;;;;0.97;0.97;;;;;;;;;;5084155;28;20300;-26
2024/01/08 02:14:27;;;;;;;0.83;0.83;;;;;;;;;;5090375;28;20248;-29
2024/01/08 02:16:55;;;;;;;2.80;1.00;;;;;;;;;;5094224;28;20207;-28
2024/01/08 02:19:31;;;;;;;1.63;1.53;;;;;;;;;;5091429;28;20226;-27
2024/01/08 02:22:00;;;;;;;1.20;1.10;;;;;;;;;;5093988;28;20269;-26
2024/01/08 02:24:29;;;;;;;2.47;1.50;;;;;;;;;;5085434;28;20224;-27
2024/01/08 02:26:58;;;;;;;1.70;1.60;;;;;;;;;;5094391;28;20227;-28
2024/01/08 02:29:27;;;;;;;1.63;1.53;;;;;;;;;;5088196;28;20559;-25
2024/01/08 02:31:58;;;;;;;2.17;1.97;;;;;;;;;;5090511;28;20229;-27
2024/01/08 02:34:27;;;;;;;1.70;1.60;;;;;;;;;;5094550;28;20277;-26
2024/01/08 02:36:55;;;;;;;1.70;1.60;;;;;;;;;;5092048;28;20200;-26
2024/01/08 02:39:24;;;;;;;1.43;1.33;;;;;;;;;;5081242;28;20209;-27
2024/01/08 02:41:54;;;;;;;2.00;1.80;;;;;;;;;;5090828;28;20232;-27
2024/01/08 02:44:22;;;;;;;2.03;1.57;;;;;;;;;;5089741;28;20224;-25
2024/01/08 02:46:50;;;;;;;2.17;1.97;;;;;;;;;;5093539;28;20254;-28
2024/01/08 02:49:20;;;;;;;2.37;2.17;;;;;;;;;;5090205;28;20209;-28
2024/01/08 02:51:49;;;;;;;1.47;1.37;;;;;;;;;;5088737;28;20257;-27
2024/01/08 02:54:20;;;;;;;1.77;1.30;;;;;;;;;;5087838;28;20714;-26
2024/01/08 02:56:53;;;;;;;2.10;1.90;;;;;;;;;;5094042;28;20201;-25
2024/01/08 03:01:52;;;;;;;2.50;2.30;;;;;;;;;;5048402;28;20218;-25
2024/01/08 03:04:25;;;;;;;2.20;2.00;;;;;;;;;;5044868;28;20321;-26
2024/01/08 03:06:54;;;;;;;1.87;1.77;;;;;;;;;;5053999;28;20310;-27
2024/01/08 03:09:35;;;;;;;1.50;1.40;;;;;;;;;;5054347;28;20210;-26
2024/01/08 03:12:04;;;;;;;2.17;1.97;;;;;;;;;;5050414;28;20292;-28
2024/01/08 03:14:31;;;;;;;2.10;1.90;;;;;;;;;;5053457;28;20316;-26
2024/01/08 03:17:05;;;;;;;3.10;1.90;;;;;;;;;;5053555;28;20206;-28
2024/01/08 03:19:32;;;;;;;1.73;1.63;;;;;;;;;;5040405;28;20249;-26
2024/01/08 03:22:01;;;;;;;2.70;1.90;;;;;;;;;;5050702;28;20272;-27
2024/01/08 03:24:29;;;;;;;2.17;1.80;;;;;;;;;;5052802;28;20287;-27
2024/01/08 03:26:57;;;;;;;1.60;1.50;;;;;;;;;;5052736;28;20687;-27
2024/01/08 03:29:25;;;;;;;1.87;1.73;;;;;;;;;;5048419;28;20307;-27
2024/01/08 03:31:53;;;;;;;1.77;1.40;;;;;;;;;;5053878;28;20214;-28
2024/01/08 03:34:24;;;;;;;2.13;1.93;;;;;;;;;;5053482;28;20226;-27
2024/01/08 03:36:53;;;;;;;1.97;1.87;;;;;;;;;;5051431;28;20210;-27
2024/01/08 03:39:21;;;;;;;2.17;1.90;;;;;;;;;;5045883;28;20201;-25
2024/01/08 03:41:49;;;;;;;2.10;2.00;;;;;;;;;;5047327;28;20220;-28
2024/01/08 03:44:18;;;;;;;2.03;1.80;;;;;;;;;;5046508;28;20247;-29
2024/01/08 03:46:48;;;;;;;2.40;2.17;;;;;;;;;;5053815;28;20305;-26
2024/01/08 03:49:20;;;;;;;0.77;0.63;;;;;;;;;;5049287;28;20217;-26
2024/01/08 03:51:50;;;;;;;3.07;1.90;;;;;;;;;;5049670;28;20301;-26
2024/01/08 03:54:19;;;;;;;1.70;1.40;;;;;;;;;;5052710;28;20620;-26
2024/01/08 03:59:25;;;;;;;1.27;1.10;;;;;;;;;;5041696;28;20309;-27
2024/01/08 04:01:54;;;;;;;0.87;0.60;;;;;;;;;;5052806;28;20198;-27
2024/01/08 04:04:27;;;;;;;1.60;1.50;;;;;;;;;;5052268;28;20454;-28
2024/01/08 04:06:59;;;;;;;1.20;0.97;;;;;;;;;;5050595;28;20264;-26
2024/01/08 04:09:27;;;;;;;1.30;1.13;;;;;;;;;;5046553;28;20317;-27
2024/01/08 04:12:03;;;;;;;1.03;0.93;;;;;;;;;;5045349;28;20228;-27
2024/01/08 04:17:15;;;;;;;2.73;1.37;;;;;;;;;;5077781;22;20240;-29
2024/01/08 04:20:04;;;;;;;1.50;1.40;;;;;;;;;;5067764;28;20204;-28
2024/01/08 04:25:06;;;;;;;2.73;1.90;;;;;;;;;;5069433;28;20229;-28
2024/01/08 04:27:39;;;;;;;2.37;1.83;;;;;;;;;;5072814;28;20225;-28
2024/01/08 04:30:13;;;;;;;2.30;1.67;;;;;;;;;;5064637;28;20222;-28
2024/01/08 04:32:43;;;;;;;2.07;1.87;;;;;;;;;;5064777;28;20240;-26
2024/01/08 04:35:16;;;;;;;3.60;2.30;;;;;;;;;;5071477;28;20260;-26
2024/01/08 04:37:47;;;;;;;1.87;1.77;;;;;;;;;;5063606;28;20285;-26
2024/01/08 04:40:26;;;;;;;1.90;1.70;;;;;;;;;;5063125;28;20220;-24
2024/01/08 04:43:07;;;;;;;1.53;1.43;;;;;;;;;;5063033;28;20607;-26
2024/01/08 04:45:38;;;;;;;1.40;1.30;;;;;;;;;;5070337;28;20217;-27
2024/01/08 04:48:07;;;;;;;2.40;1.90;;;;;;;;;;5072248;28;20694;-28
2024/01/08 04:50:35;;;;;;;1.63;1.53;;;;;;;;;;5069930;28;20606;-26
2024/01/08 04:53:04;;;;;;;1.90;1.80;;;;;;;;;;5062965;28;20206;-26
2024/01/08 04:55:33;;;;;;;1.33;1.20;;;;;;;;;;5070888;28;20229;-26
2024/01/08 04:58:14;;;;;;;1.80;1.70;;;;;;;;;;5071619;28;20233;-25
2024/01/08 05:00:41;;;;;;;4.17;1.80;;;;;;;;;;5062405;28;20252;-25
2024/01/08 05:03:14;;;;;;;2.00;1.83;;;;;;;;;;5071542;28;20241;-28
2024/01/08 05:05:43;;;;;;;2.23;2.00;;;;;;;;;;5064436;28;20221;-29
2024/01/08 05:08:11;;;;;;;1.70;1.03;;;;;;;;;;5061086;28;20291;-27
2024/01/08 05:10:43;;;;;;;2.77;1.87;;;;;;;;;;5064023;28;20209;-27
2024/01/08 05:13:11;;;;;;;2.13;1.90;;;;;;;;;;5067530;28;20209;-26
2024/01/08 05:15:39;;;;;;;1.80;1.50;;;;;;;;;;5071729;28;20307;-27
2024/01/08 05:18:13;;;;;;;1.87;1.77;;;;;;;;;;5072055;28;20207;-26
2024/01/08 05:20:41;;;;;;;1.37;1.27;;;;;;;;;;5061790;28;20263;-27
2024/01/08 05:23:11;;;;;;;2.77;1.50;;;;;;;;;;5064451;28;20280;-27
2024/01/08 05:25:39;;;;;;;2.80;1.87;;;;;;;;;;5070057;28;20213;-26
2024/01/08 05:28:07;;;;;;;1.50;1.40;;;;;;;;;;5065368;28;20230;-25
2024/01/08 05:30:36;;;;;;;2.53;1.60;;;;;;;;;;5060957;28;20220;-25
2024/01/08 05:33:06;;;;;;;2.00;1.80;;;;;;;;;;5071817;28;20683;-27
2024/01/08 05:35:35;;;;;;;2.67;2.30;;;;;;;;;;5071444;28;20229;-26
2024/01/08 05:38:03;;;;;;;2.50;1.80;;;;;;;;;;5064936;28;20205;-27
2024/01/08 05:40:33;;;;;;;1.60;1.47;;;;;;;;;;5065982;28;20209;-25
2024/01/08 05:43:08;;;;;;;2.93;0.30;;;;;;;;;;5063006;28;20237;-27
2024/01/08 05:45:37;;;;;;;2.50;2.13;;;;;;;;;;5070569;28;20228;-25
2024/01/08 05:48:09;;;;;;;2.63;1.60;;;;;;;;;;5071110;28;20232;-28
2024/01/08 05:50:36;;;;;;;1.33;1.23;;;;;;;;;;5070796;28;20213;-26
2024/01/08 05:53:04;;;;;;;2.57;2.17;;;;;;;;;;5072504;28;20224;-25
2024/01/08 05:55:38;;;;;;;0.80;0.57;;;;;;;;;;5071126;28;20279;-27
2024/01/08 05:58:13;;;;;;;0.80;0.80;;;;;;;;;;5074049;28;20236;-25
2024/01/08 06:00:41;;;;;;;3.37;1.70;;;;;;;;;;5065989;28;20291;-26
2024/01/08 06:03:12;;;;;;;1.03;1.03;;;;;;;;;;5075511;28;20216;-26
2024/01/08 06:05:40;;;;;;;1.67;1.10;;;;;;;;;;5075598;28;20244;-26
2024/01/08 06:08:11;;;;;;;0.97;0.87;;;;;;;;;;5068331;28;20258;-26
2024/01/08 06:10:40;;;;;;;1.37;1.27;;;;;;;;;;5074654;28;20205;-28
2024/01/08 06:13:11;;;;;;;0.90;0.77;;;;;;;;;;5065645;28;20212;-27
2024/01/08 06:15:39;;;;;;;2.87;1.90;;;;;;;;;;5075155;28;20565;-28
2024/01/08 06:18:08;;;;;;;1.80;1.70;;;;;;;;;;5075530;28;20208;-27
2024/01/08 06:20:37;;;;;;;1.80;1.70;;;;;;;;;;5075094;28;20247;-26
2024/01/08 06:23:05;;;;;;;1.63;1.53;;;;;;;;;;5170416;22;20299;-27
2024/01/08 06:25:33;;;;;;;3.20;1.97;;;;;;;;;;5053082;28;20225;-27
2024/01/08 06:28:05;;;;;;;2.20;1.03;;;;;;;;;;5047437;28;20234;-29
2024/01/08 06:30:42;;;;;;;2.00;1.40;;;;;;;;;;5045342;28;20206;-25
2024/01/08 06:33:13;;;;;;;2.50;2.13;;;;;;;;;;5041335;28;20205;-28
2024/01/08 06:40:47;;;;;;;2.30;2.00;;;;;;;;;;5046880;28;20275;-26
2024/01/08 06:43:15;;;;;;;2.60;2.20;;;;;;;;;;5046027;28;20202;-25
2024/01/08 06:45:45;;;;;;;3.70;2.20;;;;;;;;;;5054744;28;20226;-26
2024/01/08 06:48:13;;;;;;;2.70;1.57;;;;;;;;;;5055099;28;20626;-27
2024/01/08 06:50:42;;;;;;;1.97;1.83;;;;;;;;;;5052983;28;20308;-28
2024/01/08 06:53:18;;;;;;;2.20;1.77;;;;;;;;;;5048076;28;20605;-27
2024/01/08 06:55:47;;;;;;;2.00;1.80;;;;;;;;;;5054439;28;20231;-28
2024/01/08 06:58:15;;;;;;;1.83;1.70;;;;;;;;;;5048122;28;20276;-27
2024/01/08 07:00:47;;;;;;;3.07;2.33;;;;;;;;;;5053164;28;20221;-27
2024/01/08 07:03:16;;;;;;;1.97;1.77;;;;;;;;;;5045796;28;20205;-26
2024/01/08 07:05:45;;;;;;;2.53;2.33;;;;;;;;;;5052213;28;20221;-26
2024/01/08 07:08:13;;;;;;;1.47;1.37;;;;;;;;;;5049591;28;20560;-26
2024/01/08 07:10:43;;;;;;;2.80;2.60;;;;;;;;;;5054143;28;20203;-28
2024/01/08 07:13:15;;;;;;;1.33;1.23;;;;;;;;;;5043938;28;20220;-26
2024/01/08 07:15:44;;;;;;;1.47;1.27;;;;;;;;;;5053596;28;20234;-25
2024/01/08 07:18:19;;;;;;;3.40;1.73;;;;;;;;;;5046709;28;20582;-26
2024/01/08 07:20:48;;;;;;;2.47;2.07;;;;;;;;;;5053122;28;20275;-26
2024/01/08 07:23:21;;;;;;;3.57;2.63;;;;;;;;;;5050402;28;20202;-28
2024/01/08 07:26:06;;;;;;;2.70;2.50;;;;;;;;;;5047318;28;20241;-26
2024/01/08 07:28:37;;;;;;;2.87;2.60;;;;;;;;;;5053834;28;20320;-27
2024/01/08 07:31:11;;;;;;;2.17;1.93;;;;;;;;;;5045925;28;20198;-28
2024/01/08 07:33:42;;;;;;;2.47;1.80;;;;;;;;;;5178576;22;20301;-27
2024/01/08 07:36:25;;;;;;;1.90;1.67;;;;;;;;;;5074237;28;20276;-26
2024/01/08 07:38:55;;;;;;;5.30;3.27;;;;;;;;;;5073614;28;20205;-27
2024/01/08 07:41:59;;;;;;;2.40;1.97;;;;;;;;;;5068252;28;20204;-27
2024/01/08 07:44:52;;;;;;;1.60;1.43;;;;;;;;;;5067974;28;20213;-27
2024/01/08 07:47:26;;;;;;;5.40;3.00;;;;;;;;;;5073954;28;20225;-26
2024/01/08 07:50:08;;;;;;;1.77;1.67;;;;;;;;;;5058627;28;20224;-28
2024/01/08 07:52:41;;;;;;;2.73;2.17;;;;;;;;;;5073822;28;20241;-27
2024/01/08 07:55:23;;;;;;;4.40;2.43;;;;;;;;;;5056531;28;20222;-27
2024/01/08 07:57:53;;;;;;;2.70;2.20;;;;;;;;;;5065620;28;20189;-26
2024/01/08 08:00:24;;;;;;;1.57;1.47;;;;;;;;;;5073723;28;20224;-28
2024/01/08 08:02:52;;;;;;;2.43;1.97;;;;;;;;;;5072686;28;20288;-26
2024/01/08 08:05:25;;;;;;;0.57;0.57;;;;;;;;;;5073335;28;20754;-27
2024/01/08 08:07:56;;;;;;;3.17;2.50;;;;;;;;;;5061794;28;20758;-27
2024/01/08 08:10:32;;;;;;;0.70;0.53;;;;;;;;;;5062066;28;20644;-27
2024/01/08 08:13:03;;;;;;;2.57;2.00;;;;;;;;;;5066888;28;20208;-25
2024/01/08 08:15:31;;;;;;;2.30;1.93;;;;;;;;;;5064207;28;20225;-27
2024/01/08 08:18:00;;;;;;;1.87;1.70;;;;;;;;;;5069102;28;20200;-27
2024/01/08 08:20:29;;;;;;;3.10;2.10;;;;;;;;;;5069141;28;20310;-27
2024/01/08 08:23:08;;;;;;;2.30;1.87;;;;;;;;;;5064834;28;20193;-26
2024/01/08 08:25:36;;;;;;;2.80;2.20;;;;;;;;;;5068148;28;20221;-26
2024/01/08 08:28:05;;;;;;;2.97;2.50;;;;;;;;;;5070812;28;20300;-27
2024/01/08 08:30:33;;;;;;;2.23;2.00;;;;;;;;;;5072766;28;20205;-26
2024/01/08 08:33:03;;;;;;;2.37;1.70;;;;;;;;;;5072916;28;20217;-26
2024/01/08 08:35:36;;;;;;;2.53;1.80;;;;;;;;;;5068619;28;20248;-27
2024/01/08 08:38:12;;;;;;;1.93;1.33;;;;;;;;;;5065934;28;20557;-29
2024/01/08 08:40:45;;;;;;;2.20;2.00;;;;;;;;;;5072385;28;20200;-28
2024/01/08 08:43:14;;;;;;;2.13;1.70;;;;;;;;;;5066619;28;20288;-25
2024/01/08 08:45:46;;;;;;;2.30;1.93;;;;;;;;;;5064596;28;20252;-28
2024/01/08 08:48:18;;;;;;;3.00;1.20;;;;;;;;;;5072484;28;20228;-27
2024/01/08 08:50:48;;;;;;;1.70;1.50;;;;;;;;;;5070672;28;20266;-27
2024/01/08 08:53:18;;;;;;;2.30;1.90;;;;;;;;;;5072865;28;20205;-27
2024/01/08 08:55:47;;;;;;;1.93;1.53;;;;;;;;;;5071683;28;20257;-26
2024/01/08 09:03:22;;;;;;;1.40;1.30;;;;;;;;;;5049085;28;20210;-27
2024/01/08 09:06:01;;;;;;;1.70;1.10;;;;;;;;;;5051665;28;20224;-26
2024/01/08 09:08:33;;;;;;;2.60;2.23;;;;;;;;;;5044204;28;20256;-24
2024/01/08 09:11:04;;;;;;;2.17;1.93;;;;;;;;;;5037823;28;20205;-27
2024/01/08 09:13:35;;;;;;;2.83;2.10;;;;;;;;;;5045631;28;20206;-26
2024/01/08 09:16:07;;;;;;;1.23;1.10;;;;;;;;;;5072546;22;20221;-26
2024/01/08 09:18:38;;;;;;;2.43;2.07;;;;;;;;;;5069973;28;20204;-25
2024/01/08 09:21:13;;;;;;;3.33;2.37;;;;;;;;;;5070248;28;20209;-25
2024/01/08 09:23:44;;;;;;;1.90;1.80;;;;;;;;;;5068911;28;20304;-27
2024/01/08 09:26:16;;;;;;;1.57;1.47;;;;;;;;;;5070417;28;20320;-25
2024/01/08 09:31:40;;;;;;;2.80;1.47;;;;;;;;;;5071082;28;20208;-28
2024/01/08 09:34:12;;;;;;;2.63;2.03;;;;;;;;;;5053695;28;20232;-26
2024/01/08 09:36:42;;;;;;;2.37;1.97;;;;;;;;;;5062884;28;20205;-27
2024/01/08 09:39:11;;;;;;;2.17;1.87;;;;;;;;;;5071910;28;20631;-27
2024/01/08 09:41:45;;;;;;;1.63;1.47;;;;;;;;;;5071958;28;20209;-26
2024/01/08 09:44:18;;;;;;;2.67;2.00;;;;;;;;;;5060402;28;20705;-26
2024/01/08 09:46:50;;;;;;;4.27;2.10;;;;;;;;;;5070451;28;20197;-28
2024/01/08 09:49:26;;;;;;;2.17;1.80;;;;;;;;;;5072485;28;20228;-27
2024/01/08 09:52:03;;;;;;;2.37;1.97;;;;;;;;;;5069754;28;20298;-25
2024/01/08 09:54:36;;;;;;;1.40;1.30;;;;;;;;;;5068178;28;20220;-27
2024/01/08 09:57:08;;;;;;;3.47;2.53;;;;;;;;;;5063838;28;20205;-25
2024/01/08 09:59:49;;;;;;;7.17;3.67;;;;;;;;;;5070625;28;20554;-26
2024/01/08 10:02:23;;;;;;;4.33;2.70;;;;;;;;;;5060722;28;20292;-26
2024/01/08 10:07:25;;;;;;;8.83;4.80;;;;;;;;;;5088556;28;20255;-36
2024/01/08 10:09:54;;;;;;;7.27;3.70;;;;;;;;;;5083860;28;20722;-34
2024/01/08 10:12:29;;;;;;;4.30;2.27;;;;;;;;;;5085428;28;20213;-31
2024/01/08 10:15:06;;;;;;;4.50;1.97;;;;;;;;;;5090014;28;20277;-37
2024/01/08 10:17:49;;;;;;;4.97;2.60;;;;;;;;;;5083101;28;20223;-34
2024/01/08 10:20:24;;;;;;;1.83;1.73;;;;;;;;;;5084390;28;20253;-33
2024/01/08 10:23:06;;;;;;;3.17;2.47;;;;;;;;;;5089054;28;20212;-39
2024/01/08 10:25:46;;;;;;;2.93;2.40;;;;;;;;;;5089654;28;20235;-35
2024/01/08 10:28:20;;;;;;;3.97;3.10;;;;;;;;;;5084448;28;20245;-37
2024/01/08 10:37:21;;;;;;;3.20;2.33;;;;;;;;;;5088713;28;20208;-35
2024/01/08 10:40:26;;;;;;;3.67;2.27;;;;;;;;;;5089707;28;20205;-33
2024/01/08 10:42:59;;;;;;;2.83;2.50;;;;;;;;;;5091298;28;20240;-32
2024/01/08 10:45:35;;;;;;;2.60;2.40;;;;;;;;;;5093773;28;20231;-32
2024/01/08 10:48:09;;;;;;;4.03;2.27;;;;;;;;;;5094001;28;20208;-35
2024/01/08 10:50:40;;;;;;;2.50;1.77;;;;;;;;;;5087250;28;20491;-38
2024/01/08 10:53:12;;;;;;;2.30;2.10;;;;;;;;;;5087658;28;20216;-32
2024/01/08 10:55:46;;;;;;;2.87;2.63;;;;;;;;;;5092791;28;20315;-37
2024/01/08 10:58:27;;;;;;;3.20;2.37;;;;;;;;;;5083052;28;20201;-31
2024/01/08 11:01:01;;;;;;;3.40;2.63;;;;;;;;;;5093775;28;20208;-38
2024/01/08 11:03:35;;;;;;;3.87;2.57;;;;;;;;;;5092988;28;20240;-35
2024/01/08 11:06:05;;;;;;;1.47;1.30;;;;;;;;;;5090307;28;20229;-32
2024/01/08 11:08:36;;;;;;;2.00;1.90;;;;;;;;;;5090243;28;20224;-30
2024/01/08 11:11:09;;;;;;;3.00;2.30;;;;;;;;;;5090969;28;20304;-33
2024/01/08 11:13:40;;;;;;;3.13;2.53;;;;;;;;;;5093847;28;20567;-33
2024/01/08 11:16:14;;;;;;;3.60;1.83;;;;;;;;;;5085833;28;20217;-37
2024/01/08 11:18:44;;;;;;;2.20;2.00;;;;;;;;;;5087036;28;20198;-36
2024/01/08 11:21:17;;;;;;;2.67;2.37;;;;;;;;;;5093245;28;20204;-35
2024/01/08 11:23:51;;;;;;;2.80;2.23;;;;;;;;;;5092777;28;20220;-36
2024/01/08 11:26:21;;;;;;;8.53;5.10;;;;;;;;;;5087101;28;20211;-33
2024/01/08 11:29:08;;;;;;;6.57;3.80;;;;;;;;;;5090287;28;20331;-34
2024/01/08 11:31:53;;;;;;;2.70;2.17;;;;;;;;;;5088747;28;20208;-35
2024/01/08 11:34:51;;;;;;;7.33;4.07;;;;;;;;;;5080459;28;20654;-33
2024/01/08 11:37:34;;;;;;;3.23;2.93;;;;;;;;;;5088465;28;20208;-35
2024/01/08 11:40:23;;;;;;;5.50;3.23;;;;;;;;;;5089402;28;20211;-34
2024/01/08 11:42:54;;;;;;;5.00;3.60;;;;;;;;;;5089275;28;20293;-38
2024/01/08 11:45:27;;;;;;;2.53;2.33;;;;;;;;;;5092566;28;20239;-36
2024/01/08 11:47:59;;;;;;;3.37;2.30;;;;;;;;;;5092271;28;20211;-36
2024/01/08 11:50:27;;;;;;;3.37;2.60;;;;;;;;;;5087915;28;20252;-33
2024/01/08 11:53:00;;;;;;;2.50;2.10;;;;;;;;;;5091973;28;20215;-33
2024/01/08 11:55:32;;;;;;;1.57;1.43;;;;;;;;;;5085686;28;20270;-34
2024/01/08 11:58:03;;;;;;;2.60;2.13;;;;;;;;;;5090369;28;20208;-33
2024/01/08 12:00:38;;;;;;;2.40;2.20;;;;;;;;;;5170447;22;20233;-27
2024/01/08 12:03:08;;;;;;;3.27;2.50;;;;;;;;;;5059858;28;20224;-25
2024/01/08 12:05:38;;;;;;;3.17;2.87;;;;;;;;;;5070469;28;20595;-28
2024/01/08 12:08:06;;;;;;;4.07;2.90;;;;;;;;;;5069814;28;20213;-28
2024/01/08 12:10:58;;;;;;;2.33;2.00;;;;;;;;;;5064785;28;20739;-29
2024/01/08 12:13:27;;;;;;;2.60;2.40;;;;;;;;;;5065626;28;20651;-26
2024/01/08 12:15:57;;;;;;;1.83;1.70;;;;;;;;;;5072517;28;20697;-27
2024/01/08 12:18:33;;;;;;;1.57;1.47;;;;;;;;;;5072344;28;20209;-28
2024/01/08 12:23:53;;;;;;;1.60;1.50;;;;;;;;;;5070858;28;20288;-28
2024/01/08 12:28:55;;;;;;;3.03;2.60;;;;;;;;;;5021545;28;20227;-34
2024/01/08 12:31:43;;;;;;;1.47;1.27;;;;;;;;;;5041213;28;20215;-34
2024/01/08 12:34:21;;;;;;;3.50;2.17;;;;;;;;;;5034017;28;20206;-30
2024/01/08 12:39:29;;;;;;;5.07;2.03;;;;;;;;;;5041774;28;20259;-27
2024/01/08 12:41:59;;;;;;;3.07;2.50;;;;;;;;;;5042082;28;20210;-26
2024/01/08 12:44:27;;;;;;;3.33;2.50;;;;;;;;;;5049936;28;20222;-27
2024/01/08 12:46:56;;;;;;;3.10;2.77;;;;;;;;;;5042821;28;20206;-28
2024/01/08 12:49:27;;;;;;;2.67;2.47;;;;;;;;;;5037845;28;20222;-28
2024/01/08 12:51:58;;;;;;;4.03;2.80;;;;;;;;;;5047644;28;20269;-27
2024/01/08 12:54:26;;;;;;;2.90;2.70;;;;;;;;;;5048147;28;20237;-27
2024/01/08 12:56:53;;;;;;;2.97;2.30;;;;;;;;;;5044885;28;20195;-26
2024/01/08 12:59:24;;;;;;;3.40;3.07;;;;;;;;;;5046053;28;20725;-28
2024/01/08 13:01:52;;;;;;;2.40;2.20;;;;;;;;;;5050993;28;20206;-27
2024/01/08 13:04:21;;;;;;;3.30;2.90;;;;;;;;;;5050533;28;20230;-27
2024/01/08 13:06:58;;;;;;;3.97;2.00;;;;;;;;;;5044127;28;20213;-28
2024/01/08 13:09:26;;;;;;;3.43;2.73;;;;;;;;;;5043982;28;20229;-26
2024/01/08 13:11:54;;;;;;;2.53;2.33;;;;;;;;;;5039570;28;20194;-27
2024/01/08 13:14:22;;;;;;;3.97;2.80;;;;;;;;;;5049936;28;20222;-28
2024/01/08 13:16:50;;;;;;;3.13;2.73;;;;;;;;;;5049398;28;20224;-28
2024/01/08 13:19:18;;;;;;;1.87;1.60;;;;;;;;;;5033711;28;20207;-28
2024/01/08 13:22:07;;;;;;;2.70;2.33;;;;;;;;;;5121005;27;20582;-37
2024/01/08 13:24:34;;;;;;;2.90;2.60;;;;;;;;;;5121548;28;20234;-34
2024/01/08 13:27:02;;;;;;;2.67;2.17;;;;;;;;;;5107087;28;20212;-32
2024/01/08 13:29:30;;;;;;;2.80;2.60;;;;;;;;;;5100520;28;20245;-34
2024/01/08 13:32:00;;;;;;;3.77;3.00;;;;;;;;;;5099971;28;20204;-35
2024/01/08 13:34:31;;;;;;;2.50;2.30;;;;;;;;;;5098590;28;20497;-35
2024/01/08 13:36:59;;;;;;;2.90;2.70;;;;;;;;;;5106142;28;20218;-36
2024/01/08 13:39:29;;;;;;;2.53;2.33;;;;;;;;;;5100505;28;20211;-36
2024/01/08 13:41:56;;;;;;;4.77;2.80;;;;;;;;;;5098315;28;20582;-34
2024/01/08 13:44:31;;;;;;;4.07;2.70;;;;;;;;;;5107051;28;20242;-35
2024/01/08 13:46:59;;;;;;;2.70;2.50;;;;;;;;;;5106659;28;20243;-38
2024/01/08 13:49:33;;;;;;;2.60;2.33;;;;;;;;;;5104394;28;20211;-35
2024/01/08 13:52:01;;;;;;;3.57;3.27;;;;;;;;;;5096695;28;20204;-32
2024/01/08 13:54:30;;;;;;;3.50;2.90;;;;;;;;;;5103002;28;20789;-36
2024/01/08 13:57:04;;;;;;;4.10;3.07;;;;;;;;;;5103347;28;20203;-32
2024/01/08 13:59:31;;;;;;;2.93;2.67;;;;;;;;;;5096530;28;20741;-38
2024/01/08 14:01:59;;;;;;;3.90;2.47;;;;;;;;;;5099383;28;20231;-39
2024/01/08 14:04:26;;;;;;;3.60;2.83;;;;;;;;;;5104895;28;20248;-36
2024/01/08 14:06:54;;;;;;;2.03;1.83;;;;;;;;;;5105266;28;20292;-32
2024/01/08 14:09:21;;;;;;;4.07;3.50;;;;;;;;;;5097949;28;20196;-35
2024/01/08 14:11:52;;;;;;;3.60;2.47;;;;;;;;;;5099479;28;20204;-34
2024/01/08 14:14:20;;;;;;;3.30;2.53;;;;;;;;;;5094647;28;20219;-35
2024/01/08 14:16:49;;;;;;;1.57;1.23;;;;;;;;;;5103017;28;20362;-32
2024/01/08 14:19:20;;;;;;;2.87;2.63;;;;;;;;;;5104408;28;20258;-34
2024/01/08 14:21:48;;;;;;;2.03;1.63;;;;;;;;;;5092401;28;20227;-33
2024/01/08 14:24:16;;;;;;;3.63;2.57;;;;;;;;;;5105137;28;20219;-32
2024/01/08 14:26:47;;;;;;;2.87;2.57;;;;;;;;;;5093764;28;20254;-35
2024/01/08 14:29:16;;;;;;;5.47;2.83;;;;;;;;;;5097076;28;20208;-35
2024/01/08 14:31:43;;;;;;;2.33;2.13;;;;;;;;;;5100525;28;20291;-33
2024/01/08 14:34:10;;;;;;;4.53;3.50;;;;;;;;;;5082729;28;20545;-33
2024/01/08 14:36:39;;;;;;;3.90;3.00;;;;;;;;;;5087179;28;20201;-33
2024/01/08 14:39:07;;;;;;;3.73;2.87;;;;;;;;;;5088530;28;20257;-32
2024/01/08 14:41:37;;;;;;;3.37;2.53;;;;;;;;;;5089848;28;20219;-35
2024/01/08 14:44:05;;;;;;;3.30;2.20;;;;;;;;;;5087769;28;20351;-32
2024/01/08 14:46:42;;;;;;;4.07;2.50;;;;;;;;;;5094228;28;20205;-35
2024/01/08 14:49:10;;;;;;;3.07;2.37;;;;;;;;;;5084517;28;20200;-35
2024/01/08 14:51:38;;;;;;;2.80;2.40;;;;;;;;;;5088695;28;20196;-31
2024/01/08 14:54:11;;;;;;;3.37;2.37;;;;;;;;;;5078612;28;20214;-35
2024/01/08 14:56:40;;;;;;;2.80;1.60;;;;;;;;;;5092264;28;20197;-33
2024/01/08 14:59:21;;;;;;;5.00;3.47;;;;;;;;;;5092923;28;20212;-32
2024/01/08 15:01:53;;;;;;;3.80;1.50;;;;;;;;;;5080627;28;20328;-35
2024/01/08 15:04:24;;;;;;;4.60;3.00;;;;;;;;;;5085451;28;20681;-32
2024/01/08 15:06:55;;;;;;;2.83;2.10;;;;;;;;;;5093223;28;20646;-30
2024/01/08 15:09:22;;;;;;;5.97;4.67;;;;;;;;;;5093201;28;20245;-31
2024/01/08 15:11:54;;;;;;;6.60;3.90;;;;;;;;;;5086197;28;20692;-36
2024/01/08 15:14:27;;;;;;;3.53;3.00;;;;;;;;;;5092225;28;20819;-32
2024/01/08 15:16:56;;;;;;;8.67;3.63;;;;;;;;;;5093576;28;20219;-34
2024/01/08 15:19:28;;;;;;;4.50;2.90;;;;;;;;;;5087846;28;20215;-33
2024/01/08 15:21:56;;;;;;;5.87;3.73;;;;;;;;;;5092772;28;20228;-32
2024/01/08 15:24:24;;;;;;;11.23;5.57;;;;;;;;;;5090351;28;20580;-34
2024/01/08 15:26:53;;;;;;;6.37;3.37;;;;;;;;;;5089427;28;20664;-35
2024/01/08 15:29:22;;;;;;;7.43;4.23;;;;;;;;;;5091898;28;20286;-31
2024/01/08 15:31:53;;;;;;;6.90;3.90;;;;;;;;;;5090785;28;20224;-31
2024/01/08 15:34:23;;;;;;;4.73;3.10;;;;;;;;;;5084704;28;20740;-31
2024/01/08 15:37:21;;;;;;;4.53;2.40;;;;;;;;;;5092011;28;20200;-32
2024/01/08 15:39:50;;;;;;;0.67;0.40;;;;;;;;;;5090265;28;20184;-34
2024/01/08 15:42:20;;;;;;;5.37;3.83;;;;;;;;;;5089767;28;20228;-34
2024/01/08 15:47:19;;;;;;;8.83;4.93;;;;;;;;;;5065181;28;20259;-34
2024/01/08 15:49:59;;;;;;;9.17;4.93;;;;;;;;;;5060520;28;20208;-30
2024/01/08 15:52:33;;;;;;;39.70;36.23;;;;;;;;;;5056560;28;20316;-29
2024/01/08 15:55:01;;;;;;;17.03;15.33;;;;;;;;;;5090799;22;20234;-30